sensor_id;sensor_type;location;lat;lon;timestamp;pressure;altitude;pressure_sealevel;temperature;humidity
4972;BME280;2501;51.214;6.768;2024-01-27T00:01:20;103176.06;;;3.76;100.00
4972;BME280;2501;51.214;6.768;2024-01-27T00:03:48;103180.88;;;3.83;100.00
4972;BME280;2501;51.214;6.768;2024-01-27T00:06:19;103178.28;;;3.95;100.00
4972;BME280;2501;51.214;6.768;2024-01-27T00:08:47;103178.09;;;3.69;100.00
4972;BME280;2501;51.214;6.768;2024-01-27T00:11:16;103172.38;;;3.61;100.00
4972;BME280;2501;51.214;6.768;2024-01-27T00:13:45;103178.06;;;3.92;100.00
4972;BME280;2501;51.214;6.768;2024-01-27T00:16:16;103170.97;;;3.78;100.00
4972;BME280;2501;51.214;6.768;2024-01-27T00:18:45;103164.94;;;3.42;100.00
4972;BME280;2501;51.214;6.768;2024-01-27T00:21:14;103178.47;;;3.62;100.00
4972;BME280;2501;51.214;6.768;2024-01-27T00:23:42;103184.97;;;3.80;100.00
4972;BME280;2501;51.214;6.768;2024-01-27T00:26:11;103185.56;;;3.53;100.00
4972;BME280;2501;51.214;6.768;2024-01-27T00:28:39;103189.81;;;3.64;100.00
4972;BME280;2501;51.214;6.768;2024-01-27T00:31:07;103189.72;;;3.74;100.00
4972;BME280;2501;51.214;6.768;2024-01-27T00:33:39;103192.69;;;4.03;100.00
4972;BME280;2501;51.214;6.768;2024-01-27T00:36:07;103184.81;;;3.90;100.00
4972;BME280;2501;51.214;6.768;2024-01-27T00:38:36;103196.63;;;3.62;100.00
4972;BME280;2501;51.214;6.768;2024-01-27T00:41:04;103197.19;;;3.46;100.00
4972;BME280;2501;51.214;6.768;2024-01-27T00:43:35;103194.25;;;3.41;100.00
4972;BME280;2501;51.214;6.768;2024-01-27T00:46:04;103197.09;;;3.44;100.00
4972;BME280;2501;51.214;6.768;2024-01-27T00:48:32;103196.97;;;3.43;100.00
4972;BME280;2501;51.214;6.768;2024-01-27T00:51:04;103205.19;;;3.37;100.00
4972;BME280;2501;51.214;6.768;2024-01-27T00:53:32;103199.75;;;3.34;100.00
4972;BME280;2501;51.214;6.768;2024-01-27T00:56:00;103203.63;;;3.63;100.00
4972;BME280;2501;51.214;6.768;2024-01-27T00:58:29;103207.53;;;3.34;100.00
4972;BME280;2501;51.214;6.768;2024-01-27T01:00:57;103213.28;;;3.30;100.00
4972;BME280;2501;51.214;6.768;2024-01-27T01:03:26;103210.50;;;3.39;100.00
4972;BME280;2501;51.214;6.768;2024-01-27T01:05:55;103211.97;;;3.59;100.00
4972;BME280;2501;51.214;6.768;2024-01-27T01:08:26;103217.50;;;3.63;100.00
4972;BME280;2501;51.214;6.768;2024-01-27T01:10:54;103211.28;;;3.26;100.00
4972;BME280;2501;51.214;6.768;2024-01-27T01:13:23;103215.91;;;3.42;100.00
4972;BME280;2501;51.214;6.768;2024-01-27T01:15:51;103215.78;;;3.40;100.00
4972;BME280;2501;51.214;6.768;2024-01-27T01:18:20;103218.03;;;3.24;100.00
4972;BME280;2501;51.214;6.768;2024-01-27T01:20:48;103219.25;;;3.18;100.00
4972;BME280;2501;51.214;6.768;2024-01-27T01:23:17;103206.19;;;3.16;100.00
4972;BME280;2501;51.214;6.768;2024-01-27T01:25:48;103202.38;;;3.46;100.00
4972;BME280;2501;51.214;6.768;2024-01-27T01:28:16;103200.78;;;3.25;100.00
4972;BME280;2501;51.214;6.768;2024-01-27T01:30:44;103206.88;;;3.25;100.00
4972;BME280;2501;51.214;6.768;2024-01-27T01:33:13;103204.28;;;3.48;100.00
4972;BME280;2501;51.214;6.768;2024-01-27T01:35:41;103206.75;;;3.24;100.00
4972;BME280;2501;51.214;6.768;2024-01-27T01:38:10;103204.72;;;3.66;100.00
4972;BME280;2501;51.214;6.768;2024-01-27T01:40:38;103209.59;;;3.38;100.00
4972;BME280;2501;51.214;6.768;2024-01-27T01:43:11;103203.03;;;3.32;100.00
4972;BME280;2501;51.214;6.768;2024-01-27T01:45:40;103209.00;;;3.19;100.00
4972;BME280;2501;51.214;6.768;2024-01-27T01:48:08;103205.03;;;3.12;100.00
4972;BME280;2501;51.214;6.768;2024-01-27T01:50:37;103218.34;;;3.05;100.00
4972;BME280;2501;51.214;6.768;2024-01-27T01:53:06;103215.75;;;3.05;100.00
4972;BME280;2501;51.214;6.768;2024-01-27T01:55:34;103216.06;;;2.98;100.00
4972;BME280;2501;51.214;6.768;2024-01-27T01:58:03;103224.44;;;2.94;100.00
4972;BME280;2501;51.214;6.768;2024-01-27T02:00:34;103225.03;;;3.25;100.00
4972;BME280;2501;51.214;6.768;2024-01-27T02:03:03;103221.13;;;2.97;100.00
4972;BME280;2501;51.214;6.768;2024-01-27T02:05:32;103222.38;;;2.90;100.00
4972;BME280;2501;51.214;6.768;2024-01-27T02:08:00;103227.31;;;2.87;100.00
4972;BME280;2501;51.214;6.768;2024-01-27T02:10:29;103227.50;;;2.78;100.00
4972;BME280;2501;51.214;6.768;2024-01-27T02:13:02;103230.09;;;2.78;100.00
4972;BME280;2501;51.214;6.768;2024-01-27T02:15:34;103230.09;;;2.78;100.00
4972;BME280;2501;51.214;6.768;2024-01-27T02:18:02;103227.63;;;2.80;100.00
4972;BME280;2501;51.214;6.768;2024-01-27T02:20:31;103230.78;;;2.76;100.00
4972;BME280;2501;51.214;6.768;2024-01-27T02:22:59;103233.28;;;2.74;100.00
4972;BME280;2501;51.214;6.768;2024-01-27T02:25:32;103224.59;;;2.74;100.00
4972;BME280;2501;51.214;6.768;2024-01-27T02:28:01;103220.06;;;2.71;100.00
4972;BME280;2501;51.214;6.768;2024-01-27T02:30:30;103227.34;;;2.65;100.00
4972;BME280;2501;51.214;6.768;2024-01-27T02:32:59;103226.22;;;2.62;100.00
4972;BME280;2501;51.214;6.768;2024-01-27T02:35:27;103221.81;;;2.61;100.00
4972;BME280;2501;51.214;6.768;2024-01-27T02:37:56;103218.91;;;2.56;100.00
4972;BME280;2501;51.214;6.768;2024-01-27T02:40:24;103223.94;;;2.55;100.00
4972;BME280;2501;51.214;6.768;2024-01-27T02:42:55;103233.28;;;2.53;100.00
4972;BME280;2501;51.214;6.768;2024-01-27T02:45:23;103230.81;;;2.54;100.00
4972;BME280;2501;51.214;6.768;2024-01-27T02:47:52;103233.00;;;2.60;100.00
4972;BME280;2501;51.214;6.768;2024-01-27T02:50:20;103230.16;;;2.57;100.00
4972;BME280;2501;51.214;6.768;2024-01-27T02:52:49;103227.56;;;2.57;100.00
4972;BME280;2501;51.214;6.768;2024-01-27T02:55:17;103223.03;;;2.54;100.00
4972;BME280;2501;51.214;6.768;2024-01-27T02:57:46;103219.59;;;2.43;100.00
4972;BME280;2501;51.214;6.768;2024-01-27T03:00:17;103229.66;;;2.51;100.00
4972;BME280;2501;51.214;6.768;2024-01-27T03:02:45;103234.84;;;2.51;100.00
4972;BME280;2501;51.214;6.768;2024-01-27T03:05:14;103231.47;;;2.52;100.00
4972;BME280;2501;51.214;6.768;2024-01-27T03:07:42;103226.53;;;2.55;100.00
4972;BME280;2501;51.214;6.768;2024-01-27T03:10:11;103234.19;;;2.53;100.00
4972;BME280;2501;51.214;6.768;2024-01-27T03:12:39;103222.25;;;2.55;100.00
4972;BME280;2501;51.214;6.768;2024-01-27T03:15:08;103226.91;;;2.59;100.00
4972;BME280;2501;51.214;6.768;2024-01-27T03:17:39;103228.69;;;2.60;100.00
4972;BME280;2501;51.214;6.768;2024-01-27T03:20:09;103231.19;;;2.59;100.00
4972;BME280;2501;51.214;6.768;2024-01-27T03:22:38;103228.34;;;2.56;100.00
4972;BME280;2501;51.214;6.768;2024-01-27T03:25:10;103233.78;;;2.59;100.00
4972;BME280;2501;51.214;6.768;2024-01-27T03:27:38;103233.66;;;2.57;100.00
4972;BME280;2501;51.214;6.768;2024-01-27T03:30:07;103247.03;;;2.52;100.00
4972;BME280;2501;51.214;6.768;2024-01-27T03:32:38;103248.47;;;2.48;100.00
4972;BME280;2501;51.214;6.768;2024-01-27T03:35:07;103251.31;;;2.51;100.00
4972;BME280;2501;51.214;6.768;2024-01-27T03:37:36;103250.16;;;2.48;100.00
4972;BME280;2501;51.214;6.768;2024-01-27T03:40:06;103241.72;;;2.50;100.00
4972;BME280;2501;51.214;6.768;2024-01-27T03:42:34;103249.63;;;2.52;100.00
4972;BME280;2501;51.214;6.768;2024-01-27T03:45:03;103255.81;;;2.54;100.00
4972;BME280;2501;51.214;6.768;2024-01-27T03:47:32;103256.47;;;2.51;100.00
4972;BME280;2501;51.214;6.768;2024-01-27T03:50:04;103251.41;;;2.53;100.00
4972;BME280;2501;51.214;6.768;2024-01-27T03:52:32;103254.66;;;2.50;100.00
4972;BME280;2501;51.214;6.768;2024-01-27T03:55:01;103256.13;;;2.47;100.00
4972;BME280;2501;51.214;6.768;2024-01-27T03:57:30;103251.13;;;2.38;100.00
4972;BME280;2501;51.214;6.768;2024-01-27T03:59:59;103251.25;;;2.39;100.00
4972;BME280;2501;51.214;6.768;2024-01-27T04:02:29;103247.38;;;2.34;100.00
4972;BME280;2501;51.214;6.768;2024-01-27T04:04:57;103250.88;;;2.35;100.00
4972;BME280;2501;51.214;6.768;2024-01-27T04:07:28;103254.13;;;2.32;100.00
4972;BME280;2501;51.214;6.768;2024-01-27T04:09:57;103264.25;;;2.29;100.00
4972;BME280;2501;51.214;6.768;2024-01-27T04:12:25;103268.06;;;2.23;100.00
4972;BME280;2501;51.214;6.768;2024-01-27T04:14:54;103273.75;;;2.19;100.00
4972;BME280;2501;51.214;6.768;2024-01-27T04:17:23;103272.59;;;2.15;100.00
4972;BME280;2501;51.214;6.768;2024-01-27T04:19:51;103285.03;;;2.09;100.00
4972;BME280;2501;51.214;6.768;2024-01-27T04:22:20;103279.47;;;2.15;100.00
4972;BME280;2501;51.214;6.768;2024-01-27T04:24:51;103274.41;;;2.16;100.00
4972;BME280;2501;51.214;6.768;2024-01-27T04:27:19;103265.50;;;2.13;100.00
4972;BME280;2501;51.214;6.768;2024-01-27T04:29:48;103269.09;;;2.15;100.00
4972;BME280;2501;51.214;6.768;2024-01-27T04:32:16;103269.75;;;2.12;100.00
4972;BME280;2501;51.214;6.768;2024-01-27T04:34:44;103274.47;;;2.06;100.00
4972;BME280;2501;51.214;6.768;2024-01-27T04:37:13;103272.53;;;2.03;100.00
4972;BME280;2501;51.214;6.768;2024-01-27T04:39:41;103268.25;;;2.04;100.00
4972;BME280;2501;51.214;6.768;2024-01-27T04:42:12;103275.25;;;2.05;100.00
4972;BME280;2501;51.214;6.768;2024-01-27T04:44:41;103281.59;;;1.98;100.00
4972;BME280;2501;51.214;6.768;2024-01-27T04:47:10;103283.41;;;1.99;100.00
4972;BME280;2501;51.214;6.768;2024-01-27T04:49:39;103274.38;;;1.94;100.00
4972;BME280;2501;51.214;6.768;2024-01-27T04:52:07;103281.41;;;1.75;100.00
4972;BME280;2501;51.214;6.768;2024-01-27T04:54:35;103288.19;;;1.73;100.00
4972;BME280;2501;51.214;6.768;2024-01-27T04:57:04;103270.94;;;1.84;100.00
4972;BME280;2501;51.214;6.768;2024-01-27T04:59:35;103274.16;;;1.81;100.00
4972;BME280;2501;51.214;6.768;2024-01-27T05:02:03;103275.84;;;1.81;100.00
4972;BME280;2501;51.214;6.768;2024-01-27T05:04:32;103275.19;;;1.83;100.00
4972;BME280;2501;51.214;6.768;2024-01-27T05:07:08;103265.56;;;1.92;100.00
4972;BME280;2501;51.214;6.768;2024-01-27T05:09:36;103266.53;;;1.83;100.00
4972;BME280;2501;51.214;6.768;2024-01-27T05:12:05;103266.66;;;1.84;100.00
4972;BME280;2501;51.214;6.768;2024-01-27T05:14:36;103268.59;;;1.77;100.00
4972;BME280;2501;51.214;6.768;2024-01-27T05:17:04;103272.75;;;1.74;100.00
4972;BME280;2501;51.214;6.768;2024-01-27T05:19:33;103269.94;;;1.71;100.00
4972;BME280;2501;51.214;6.768;2024-01-27T05:22:01;103275.75;;;1.69;100.00
4972;BME280;2501;51.214;6.768;2024-01-27T05:24:30;103267.22;;;1.70;100.00
4972;BME280;2501;51.214;6.768;2024-01-27T05:26:59;103268.09;;;1.81;100.00
4972;BME280;2501;51.214;6.768;2024-01-27T05:29:28;103270.84;;;1.72;100.00
4972;BME280;2501;51.214;6.768;2024-01-27T05:31:59;103280.91;;;1.79;100.00
4972;BME280;2501;51.214;6.768;2024-01-27T05:34:28;103279.84;;;1.77;100.00
4972;BME280;2501;51.214;6.768;2024-01-27T05:36:58;103289.84;;;1.72;100.00
4972;BME280;2501;51.214;6.768;2024-01-27T05:39:29;103280.28;;;1.71;100.00
4972;BME280;2501;51.214;6.768;2024-01-27T05:41:59;103277.84;;;1.73;100.00
4972;BME280;2501;51.214;6.768;2024-01-27T05:44:28;103286.13;;;1.69;100.00
4972;BME280;2501;51.214;6.768;2024-01-27T05:46:59;103283.66;;;1.60;100.00
4972;BME280;2501;51.214;6.768;2024-01-27T05:49:27;103281.50;;;1.55;100.00
4972;BME280;2501;51.214;6.768;2024-01-27T05:51:55;103276.31;;;1.45;100.00
4972;BME280;2501;51.214;6.768;2024-01-27T05:54:24;103287.66;;;1.57;100.00
4972;BME280;2501;51.214;6.768;2024-01-27T05:56:53;103278.28;;;1.37;100.00
4972;BME280;2501;51.214;6.768;2024-01-27T05:59:21;103285.50;;;1.41;100.00
4972;BME280;2501;51.214;6.768;2024-01-27T06:01:49;103283.59;;;1.38;100.00
4972;BME280;2501;51.214;6.768;2024-01-27T06:04:20;103284.47;;;1.39;100.00
4972;BME280;2501;51.214;6.768;2024-01-27T06:06:49;103293.66;;;1.46;100.00
4972;BME280;2501;51.214;6.768;2024-01-27T06:09:18;103282.41;;;1.45;100.00
4972;BME280;2501;51.214;6.768;2024-01-27T06:11:47;103292.47;;;1.52;100.00
4972;BME280;2501;51.214;6.768;2024-01-27T06:14:15;103290.69;;;1.51;100.00
4972;BME280;2501;51.214;6.768;2024-01-27T06:16:44;103280.19;;;1.39;100.00
4972;BME280;2501;51.214;6.768;2024-01-27T06:19:12;103290.53;;;1.50;100.00
4972;BME280;2501;51.214;6.768;2024-01-27T06:21:43;103288.75;;;1.38;100.00
4972;BME280;2501;51.214;6.768;2024-01-27T06:24:12;103284.47;;;1.39;100.00
4972;BME280;2501;51.214;6.768;2024-01-27T06:26:40;103290.69;;;1.51;100.00
4972;BME280;2501;51.214;6.768;2024-01-27T06:29:09;103288.22;;;1.43;100.00
4972;BME280;2501;51.214;6.768;2024-01-27T06:31:37;103295.47;;;1.47;100.00
4972;BME280;2501;51.214;6.768;2024-01-27T06:34:06;103298.03;;;1.47;100.00
4972;BME280;2501;51.214;6.768;2024-01-27T06:36:34;103294.81;;;1.39;100.00
4972;BME280;2501;51.214;6.768;2024-01-27T06:39:05;103303.88;;;1.44;100.00
4972;BME280;2501;51.214;6.768;2024-01-27T06:41:36;103304.75;;;1.45;100.00
4972;BME280;2501;51.214;6.768;2024-01-27T06:44:04;103300.63;;;1.47;100.00
4972;BME280;2501;51.214;6.768;2024-01-27T06:46:33;103300.25;;;1.42;100.00
4972;BME280;2501;51.214;6.768;2024-01-27T06:49:01;103308.63;;;1.39;100.00
4972;BME280;2501;51.214;6.768;2024-01-27T06:51:30;103302.19;;;1.45;100.00
4972;BME280;2501;51.214;6.768;2024-01-27T06:53:58;103309.53;;;1.40;100.00
4972;BME280;2501;51.214;6.768;2024-01-27T06:56:29;103314.84;;;1.42;100.00
4972;BME280;2501;51.214;6.768;2024-01-27T06:58:58;103313.19;;;1.32;100.00
4972;BME280;2501;51.214;6.768;2024-01-27T07:01:26;103324.41;;;1.43;100.00
4972;BME280;2501;51.214;6.768;2024-01-27T07:03:55;103315.88;;;1.44;100.00
4972;BME280;2501;51.214;6.768;2024-01-27T07:06:23;103315.66;;;1.30;100.00
4972;BME280;2501;51.214;6.768;2024-01-27T07:08:51;103320.16;;;1.33;100.00
4972;BME280;2501;51.214;6.768;2024-01-27T07:11:20;103324.94;;;1.28;100.00
4972;BME280;2501;51.214;6.768;2024-01-27T07:13:51;103328.19;;;1.26;100.00
4972;BME280;2501;51.214;6.768;2024-01-27T07:16:19;103326.00;;;1.30;100.00
4972;BME280;2501;51.214;6.768;2024-01-27T07:18:48;103329.59;;;1.22;100.00
4972;BME280;2501;51.214;6.768;2024-01-27T07:21:16;103326.78;;;1.19;100.00
4972;BME280;2501;51.214;6.768;2024-01-27T07:23:45;103330.91;;;1.17;100.00
4972;BME280;2501;51.214;6.768;2024-01-27T07:26:13;103334.91;;;1.14;100.00
4972;BME280;2501;51.214;6.768;2024-01-27T07:28:42;103332.84;;;0.99;100.00
4972;BME280;2501;51.214;6.768;2024-01-27T07:31:13;103336.97;;;1.18;100.00
4972;BME280;2501;51.214;6.768;2024-01-27T07:33:42;103333.88;;;1.12;100.00
4972;BME280;2501;51.214;6.768;2024-01-27T07:36:11;103345.09;;;1.12;100.00
4972;BME280;2501;51.214;6.768;2024-01-27T07:38:39;103338.41;;;1.14;100.00
4972;BME280;2501;51.214;6.768;2024-01-27T07:41:08;103332.81;;;1.10;100.00
4972;BME280;2501;51.214;6.768;2024-01-27T07:43:36;103341.25;;;1.17;100.00
4972;BME280;2501;51.214;6.768;2024-01-27T07:46:05;103343.84;;;1.17;100.00
4972;BME280;2501;51.214;6.768;2024-01-27T07:48:36;103355.06;;;1.18;100.00
4972;BME280;2501;51.214;6.768;2024-01-27T07:51:04;103352.22;;;1.25;100.00
4972;BME280;2501;51.214;6.768;2024-01-27T07:53:33;103343.31;;;1.31;100.00
4972;BME280;2501;51.214;6.768;2024-01-27T07:56:02;103370.97;;;1.32;100.00
4972;BME280;2501;51.214;6.768;2024-01-27T07:58:30;103368.03;;;1.38;100.00
4972;BME280;2501;51.214;6.768;2024-01-27T08:00:59;103365.31;;;1.36;100.00
4972;BME280;2501;51.214;6.768;2024-01-27T08:03:27;103364.53;;;1.37;100.00
4972;BME280;2501;51.214;6.768;2024-01-27T08:05:58;103368.00;;;1.28;100.00
4972;BME280;2501;51.214;6.768;2024-01-27T08:08:27;103376.38;;;1.25;100.00
4972;BME280;2501;51.214;6.768;2024-01-27T08:10:55;103380.81;;;1.36;100.00
4972;BME280;2501;51.214;6.768;2024-01-27T08:13:24;103382.88;;;1.30;100.00
4972;BME280;2501;51.214;6.768;2024-01-27T08:15:52;103384.31;;;1.37;100.00
4972;BME280;2501;51.214;6.768;2024-01-27T08:18:21;103379.38;;;1.40;100.00
4972;BME280;2501;51.214;6.768;2024-01-27T08:20:49;103378.34;;;1.48;100.00
4972;BME280;2501;51.214;6.768;2024-01-27T08:23:20;103383.13;;;1.54;100.00
4972;BME280;2501;51.214;6.768;2024-01-27T08:25:48;103390.50;;;1.69;100.00
4972;BME280;2501;51.214;6.768;2024-01-27T08:28:18;103391.25;;;1.79;100.00
4972;BME280;2501;51.214;6.768;2024-01-27T08:30:46;103382.88;;;1.71;100.00
4972;BME280;2501;51.214;6.768;2024-01-27T08:33:15;103392.97;;;1.68;100.00
4972;BME280;2501;51.214;6.768;2024-01-27T08:35:43;103394.13;;;1.71;100.00
4972;BME280;2501;51.214;6.768;2024-01-27T08:38:11;103385.69;;;1.84;100.00
4972;BME280;2501;51.214;6.768;2024-01-27T08:40:43;103385.19;;;1.88;100.00
4972;BME280;2501;51.214;6.768;2024-01-27T08:43:11;103384.28;;;1.88;100.00
4972;BME280;2501;51.214;6.768;2024-01-27T08:45:40;103380.66;;;1.86;100.00
4972;BME280;2501;51.214;6.768;2024-01-27T08:48:08;103377.75;;;1.93;100.00
4972;BME280;2501;51.214;6.768;2024-01-27T08:50:38;103376.84;;;2.02;100.00
4972;BME280;2501;51.214;6.768;2024-01-27T08:53:06;103379.44;;;2.02;100.00
4972;BME280;2501;51.214;6.768;2024-01-27T08:55:35;103375.00;;;2.12;100.00
4972;BME280;2501;51.214;6.768;2024-01-27T08:58:06;103375.50;;;2.18;100.00
4972;BME280;2501;51.214;6.768;2024-01-27T09:00:34;103370.94;;;2.25;100.00
4972;BME280;2501;51.214;6.768;2024-01-27T09:03:03;103360.38;;;2.22;100.00
4972;BME280;2501;51.214;6.768;2024-01-27T09:05:33;103367.56;;;2.36;100.00
4972;BME280;2501;51.214;6.768;2024-01-27T09:08:01;103368.03;;;2.42;100.00
4972;BME280;2501;51.214;6.768;2024-01-27T09:10:29;103375.53;;;2.50;100.00
4972;BME280;2501;51.214;6.768;2024-01-27T09:12:58;103363.84;;;2.55;100.00
4972;BME280;2501;51.214;6.768;2024-01-27T09:15:29;103370.41;;;2.61;100.00
4972;BME280;2501;51.214;6.768;2024-01-27T09:18:09;103367.13;;;2.74;100.00
4972;BME280;2501;51.214;6.768;2024-01-27T09:20:40;103372.75;;;2.80;100.00
4972;BME280;2501;51.214;6.768;2024-01-27T09:23:09;103368.56;;;2.92;100.00
4972;BME280;2501;51.214;6.768;2024-01-27T09:25:37;103362.09;;;2.87;100.00
4972;BME280;2501;51.214;6.768;2024-01-27T09:28:06;103355.22;;;3.09;100.00
4972;BME280;2501;51.214;6.768;2024-01-27T09:30:34;103360.09;;;2.95;100.00
4972;BME280;2501;51.214;6.768;2024-01-27T09:33:03;103359.91;;;3.25;100.00
4972;BME280;2501;51.214;6.768;2024-01-27T09:35:34;103359.72;;;3.12;100.00
4972;BME280;2501;51.214;6.768;2024-01-27T09:38:04;103358.72;;;3.10;100.00
4972;BME280;2501;51.214;6.768;2024-01-27T09:40:34;103364.72;;;3.21;100.00
4972;BME280;2501;51.214;6.768;2024-01-27T09:43:03;103359.16;;;3.49;100.00
4972;BME280;2501;51.214;6.768;2024-01-27T09:45:32;103362.88;;;3.41;100.00
4972;BME280;2501;51.214;6.768;2024-01-27T09:48:01;103356.63;;;3.61;100.00
4972;BME280;2501;51.214;6.768;2024-01-27T09:50:34;103346.66;;;3.67;100.00
4972;BME280;2501;51.214;6.768;2024-01-27T09:53:02;103350.03;;;3.55;100.00
4972;BME280;2501;51.214;6.768;2024-01-27T09:55:34;103351.44;;;3.61;100.00
4972;BME280;2501;51.214;6.768;2024-01-27T09:58:02;103350.66;;;3.74;100.00
4972;BME280;2501;51.214;6.768;2024-01-27T10:00:34;103358.88;;;3.68;100.00
4972;BME280;2501;51.214;6.768;2024-01-27T10:03:04;103359.53;;;3.66;100.00
4972;BME280;2501;51.214;6.768;2024-01-27T10:05:38;103365.44;;;3.75;100.00
4972;BME280;2501;51.214;6.768;2024-01-27T10:08:07;103372.31;;;3.86;100.00
4972;BME280;2501;51.214;6.768;2024-01-27T10:10:35;103368.03;;;3.87;100.00
4972;BME280;2501;51.214;6.768;2024-01-27T10:13:04;103378.41;;;3.63;100.00
4972;BME280;2501;51.214;6.768;2024-01-27T10:15:30;103376.94;;;3.78;100.00
4972;BME280;2501;51.214;6.768;2024-01-27T10:18:05;103381.44;;;3.81;100.00
4972;BME280;2501;51.214;6.768;2024-01-27T10:20:41;103386.78;;;3.94;100.00
4972;BME280;2501;51.214;6.768;2024-01-27T10:23:10;103386.78;;;3.94;100.00
4972;BME280;2501;51.214;6.768;2024-01-27T10:25:40;103397.16;;;4.06;100.00
4972;BME280;2501;51.214;6.768;2024-01-27T10:28:08;103383.72;;;4.23;100.00
4972;BME280;2501;51.214;6.768;2024-01-27T10:30:37;103379.78;;;4.28;100.00
4972;BME280;2501;51.214;6.768;2024-01-27T10:33:07;103378.84;;;4.51;100.00
4972;BME280;2501;51.214;6.768;2024-01-27T10:35:36;103379.81;;;4.76;100.00
4972;BME280;2501;51.214;6.768;2024-01-27T10:38:07;103374.72;;;5.03;100.00
4972;BME280;2501;51.214;6.768;2024-01-27T10:40:36;103367.06;;;5.29;100.00
4972;BME280;2501;51.214;6.768;2024-01-27T10:43:06;103364.81;;;5.22;100.00
4972;BME280;2501;51.214;6.768;2024-01-27T10:45:36;103366.38;;;5.32;100.00
4972;BME280;2501;51.214;6.768;2024-01-27T10:48:06;103360.38;;;5.33;100.00
4972;BME280;2501;51.214;6.768;2024-01-27T10:50:37;103358.88;;;5.11;100.00
4972;BME280;2501;51.214;6.768;2024-01-27T10:53:09;103369.84;;;5.19;100.00
4972;BME280;2501;51.214;6.768;2024-01-27T10:55:42;103372.13;;;5.03;100.00
4972;BME280;2501;51.214;6.768;2024-01-27T10:58:12;103369.75;;;5.06;100.00
4972;BME280;2501;51.214;6.768;2024-01-27T11:00:43;103364.63;;;5.19;100.00
4972;BME280;2501;51.214;6.768;2024-01-27T11:03:14;103373.41;;;5.21;100.00
4972;BME280;2501;51.214;6.768;2024-01-27T11:05:42;103374.66;;;5.26;100.00
4972;BME280;2501;51.214;6.768;2024-01-27T11:08:14;103375.59;;;5.40;100.00
4972;BME280;2501;51.214;6.768;2024-01-27T11:10:44;103371.00;;;5.36;100.00
4972;BME280;2501;51.214;6.768;2024-01-27T11:13:13;103366.94;;;5.28;100.00
4972;BME280;2501;51.214;6.768;2024-01-27T11:15:51;103370.66;;;5.31;100.00
4972;BME280;2501;51.214;6.768;2024-01-27T11:18:19;103368.06;;;5.31;100.00
4972;BME280;2501;51.214;6.768;2024-01-27T11:20:48;103360.88;;;5.40;100.00
4972;BME280;2501;51.214;6.768;2024-01-27T11:23:19;103360.34;;;5.19;100.00
4972;BME280;2501;51.214;6.768;2024-01-27T11:25:48;103363.88;;;5.33;100.00
4972;BME280;2501;51.214;6.768;2024-01-27T11:28:16;103369.13;;;5.46;100.00
4972;BME280;2501;51.214;6.768;2024-01-27T11:30:46;103372.97;;;5.65;100.00
4972;BME280;2501;51.214;6.768;2024-01-27T11:33:15;103364.69;;;5.70;100.00
4972;BME280;2501;51.214;6.768;2024-01-27T11:35:45;103363.63;;;5.55;100.00
4972;BME280;2501;51.214;6.768;2024-01-27T11:38:13;103361.28;;;5.71;100.00
4972;BME280;2501;51.214;6.768;2024-01-27T11:40:51;103361.56;;;5.76;100.00
4972;BME280;2501;51.214;6.768;2024-01-27T11:43:23;103360.09;;;5.92;100.00
4972;BME280;2501;51.214;6.768;2024-01-27T11:45:55;103370.53;;;5.92;100.00
4972;BME280;2501;51.214;6.768;2024-01-27T11:48:24;103368.84;;;6.19;100.00
4972;BME280;2501;51.214;6.768;2024-01-27T11:51:06;103366.31;;;5.94;100.00
4972;BME280;2501;51.214;6.768;2024-01-27T11:53:34;103363.13;;;6.12;100.00
4972;BME280;2501;51.214;6.768;2024-01-27T11:56:06;103364.66;;;6.21;100.00
4972;BME280;2501;51.214;6.768;2024-01-27T11:58:35;103359.19;;;6.58;100.00
4972;BME280;2501;51.214;6.768;2024-01-27T12:01:07;103352.06;;;6.42;100.00
4972;BME280;2501;51.214;6.768;2024-01-27T12:03:35;103355.06;;;6.48;100.00
4972;BME280;2501;51.214;6.768;2024-01-27T12:06:04;103354.19;;;6.48;100.00
4972;BME280;2501;51.214;6.768;2024-01-27T12:08:34;103346.63;;;6.66;100.00
4972;BME280;2501;51.214;6.768;2024-01-27T12:11:06;103353.22;;;6.19;100.00
4972;BME280;2501;51.214;6.768;2024-01-27T12:13:34;103354.50;;;6.26;100.00
4972;BME280;2501;51.214;6.768;2024-01-27T12:16:03;103352.47;;;6.48;100.00
4972;BME280;2501;51.214;6.768;2024-01-27T12:18:32;103340.44;;;6.50;100.00
4972;BME280;2501;51.214;6.768;2024-01-27T12:21:04;103340.09;;;6.59;100.00
4972;BME280;2501;51.214;6.768;2024-01-27T12:23:32;103339.34;;;6.88;100.00
4972;BME280;2501;51.214;6.768;2024-01-27T12:26:01;103337.03;;;6.92;100.00
4972;BME280;2501;51.214;6.768;2024-01-27T12:28:32;103332.13;;;6.84;100.00
4972;BME280;2501;51.214;6.768;2024-01-27T12:31:04;103332.75;;;7.22;100.00
4972;BME280;2501;51.214;6.768;2024-01-27T12:33:32;103336.59;;;7.57;100.00
4972;BME280;2501;51.214;6.768;2024-01-27T12:36:01;103329.09;;;7.63;100.00
4972;BME280;2501;51.214;6.768;2024-01-27T12:38:29;103321.72;;;6.98;100.00
4972;BME280;2501;51.214;6.768;2024-01-27T12:40:58;103319.81;;;6.96;100.00
4972;BME280;2501;51.214;6.768;2024-01-27T12:43:27;103317.25;;;7.11;100.00
4972;BME280;2501;51.214;6.768;2024-01-27T12:45:58;103326.13;;;6.99;100.00
4972;BME280;2501;51.214;6.768;2024-01-27T12:48:26;103322.97;;;6.90;100.00
4972;BME280;2501;51.214;6.768;2024-01-27T12:50:55;103332.06;;;6.97;100.00
4972;BME280;2501;51.214;6.768;2024-01-27T12:53:24;103330.13;;;7.08;100.00
4972;BME280;2501;51.214;6.768;2024-01-27T12:55:53;103325.22;;;7.27;100.00
4972;BME280;2501;51.214;6.768;2024-01-27T12:58:22;103316.63;;;7.15;100.00
4972;BME280;2501;51.214;6.768;2024-01-27T13:00:50;103315.59;;;6.98;100.00
4972;BME280;2501;51.214;6.768;2024-01-27T13:03:22;103320.31;;;7.18;100.00
4972;BME280;2501;51.214;6.768;2024-01-27T13:05:50;103313.97;;;7.57;100.00
4972;BME280;2501;51.214;6.768;2024-01-27T13:08:19;103311.09;;;7.38;100.00
4972;BME280;2501;51.214;6.768;2024-01-27T13:10:47;103311.97;;;7.09;100.00
4972;BME280;2501;51.214;6.768;2024-01-27T13:13:16;103304.75;;;7.20;100.00
4972;BME280;2501;51.214;6.768;2024-01-27T13:15:44;103312.84;;;7.10;100.00
4972;BME280;2501;51.214;6.768;2024-01-27T13:18:13;103309.19;;;7.21;100.00
4972;BME280;2501;51.214;6.768;2024-01-27T13:20:44;103302.81;;;7.75;100.00